sensor_id;sensor_type;location;lat;lon;timestamp;P1;durP1;ratioP1;P2;durP2;ratioP2
64688;SDS011;62504;46.070;14.492;2023-12-20T00:00:04;79.60;;;30.53;;
64688;SDS011;62504;46.070;14.492;2023-12-20T00:02:31;72.10;;;29.37;;
64688;SDS011;62504;46.070;14.492;2023-12-20T00:04:57;83.70;;;30.73;;
64688;SDS011;62504;46.070;14.492;2023-12-20T00:07:22;75.97;;;29.47;;
64688;SDS011;62504;46.070;14.492;2023-12-20T00:09:48;68.13;;;29.63;;
64688;SDS011;62504;46.070;14.492;2023-12-20T00:12:13;75.37;;;28.30;;
64688;SDS011;62504;46.070;14.492;2023-12-20T00:14:39;76.87;;;28.23;;
64688;SDS011;62504;46.070;14.492;2023-12-20T00:17:05;73.27;;;27.87;;
64688;SDS011;62504;46.070;14.492;2023-12-20T00:19:30;71.60;;;28.80;;
64688;SDS011;62504;46.070;14.492;2023-12-20T00:21:56;78.63;;;28.20;;
64688;SDS011;62504;46.070;14.492;2023-12-20T00:24:22;64.80;;;28.40;;
64688;SDS011;62504;46.070;14.492;2023-12-20T00:26:47;67.17;;;27.90;;
64688;SDS011;62504;46.070;14.492;2023-12-20T00:29:13;75.03;;;28.60;;
64688;SDS011;62504;46.070;14.492;2023-12-20T00:31:38;80.73;;;29.10;;
64688;SDS011;62504;46.070;14.492;2023-12-20T00:34:04;73.80;;;28.00;;
64688;SDS011;62504;46.070;14.492;2023-12-20T00:36:30;68.03;;;28.00;;
64688;SDS011;62504;46.070;14.492;2023-12-20T00:38:55;76.67;;;29.10;;
64688;SDS011;62504;46.070;14.492;2023-12-20T00:41:21;78.00;;;28.43;;
64688;SDS011;62504;46.070;14.492;2023-12-20T00:43:46;71.63;;;27.87;;
64688;SDS011;62504;46.070;14.492;2023-12-20T00:46:12;65.30;;;27.27;;
64688;SDS011;62504;46.070;14.492;2023-12-20T00:48:38;71.43;;;27.60;;
64688;SDS011;62504;46.070;14.492;2023-12-20T00:51:03;70.17;;;27.37;;
64688;SDS011;62504;46.070;14.492;2023-12-20T00:53:29;64.70;;;27.27;;
64688;SDS011;62504;46.070;14.492;2023-12-20T00:55:55;80.03;;;29.30;;
64688;SDS011;62504;46.070;14.492;2023-12-20T00:58:20;71.97;;;28.80;;
64688;SDS011;62504;46.070;14.492;2023-12-20T01:00:46;71.63;;;27.43;;
64688;SDS011;62504;46.070;14.492;2023-12-20T01:03:12;68.90;;;27.87;;
64688;SDS011;62504;46.070;14.492;2023-12-20T01:05:38;71.73;;;28.00;;
64688;SDS011;62504;46.070;14.492;2023-12-20T01:08:04;67.13;;;27.97;;
64688;SDS011;62504;46.070;14.492;2023-12-20T01:10:30;64.87;;;26.77;;
64688;SDS011;62504;46.070;14.492;2023-12-20T01:12:55;66.90;;;26.33;;
64688;SDS011;62504;46.070;14.492;2023-12-20T01:15:21;66.67;;;27.03;;
64688;SDS011;62504;46.070;14.492;2023-12-20T01:17:47;73.53;;;29.47;;
64688;SDS011;62504;46.070;14.492;2023-12-20T01:20:14;61.23;;;25.30;;
64688;SDS011;62504;46.070;14.492;2023-12-20T01:22:40;65.63;;;27.30;;
64688;SDS011;62504;46.070;14.492;2023-12-20T01:25:07;58.27;;;24.83;;
64688;SDS011;62504;46.070;14.492;2023-12-20T01:27:33;70.87;;;24.90;;
64688;SDS011;62504;46.070;14.492;2023-12-20T01:29:59;60.53;;;24.27;;
64688;SDS011;62504;46.070;14.492;2023-12-20T01:32:24;73.20;;;27.17;;
64688;SDS011;62504;46.070;14.492;2023-12-20T01:34:50;70.83;;;26.10;;
64688;SDS011;62504;46.070;14.492;2023-12-20T01:37:16;60.23;;;25.20;;
64688;SDS011;62504;46.070;14.492;2023-12-20T01:39:41;65.70;;;25.87;;
64688;SDS011;62504;46.070;14.492;2023-12-20T01:42:07;67.50;;;25.73;;
64688;SDS011;62504;46.070;14.492;2023-12-20T01:44:33;96.50;;;26.63;;
64688;SDS011;62504;46.070;14.492;2023-12-20T01:46:58;63.53;;;26.17;;
64688;SDS011;62504;46.070;14.492;2023-12-20T01:49:24;62.77;;;25.07;;
64688;SDS011;62504;46.070;14.492;2023-12-20T01:51:50;59.00;;;25.20;;
64688;SDS011;62504;46.070;14.492;2023-12-20T01:54:16;62.03;;;24.97;;
64688;SDS011;62504;46.070;14.492;2023-12-20T01:56:44;73.33;;;25.00;;
64688;SDS011;62504;46.070;14.492;2023-12-20T01:59:10;63.63;;;25.53;;
64688;SDS011;62504;46.070;14.492;2023-12-20T02:01:36;56.63;;;24.07;;
64688;SDS011;62504;46.070;14.492;2023-12-20T02:04:02;55.33;;;23.83;;
64688;SDS011;62504;46.070;14.492;2023-12-20T02:06:30;51.90;;;23.23;;
64688;SDS011;62504;46.070;14.492;2023-12-20T02:08:58;58.43;;;24.43;;
64688;SDS011;62504;46.070;14.492;2023-12-20T02:11:25;61.10;;;24.60;;
64688;SDS011;62504;46.070;14.492;2023-12-20T02:13:51;58.50;;;23.90;;
64688;SDS011;62504;46.070;14.492;2023-12-20T02:16:18;59.43;;;25.03;;
64688;SDS011;62504;46.070;14.492;2023-12-20T02:18:44;60.80;;;26.23;;
64688;SDS011;62504;46.070;14.492;2023-12-20T02:21:09;72.40;;;27.10;;
64688;SDS011;62504;46.070;14.492;2023-12-20T02:23:35;65.27;;;26.43;;
64688;SDS011;62504;46.070;14.492;2023-12-20T02:26:01;62.93;;;26.03;;
64688;SDS011;62504;46.070;14.492;2023-12-20T02:28:28;68.40;;;27.13;;
64688;SDS011;62504;46.070;14.492;2023-12-20T02:30:54;61.63;;;25.43;;
64688;SDS011;62504;46.070;14.492;2023-12-20T02:33:20;75.20;;;26.23;;
64688;SDS011;62504;46.070;14.492;2023-12-20T02:35:45;63.37;;;25.87;;
64688;SDS011;62504;46.070;14.492;2023-12-20T02:38:12;61.40;;;24.93;;
64688;SDS011;62504;46.070;14.492;2023-12-20T02:40:37;61.10;;;25.30;;
64688;SDS011;62504;46.070;14.492;2023-12-20T02:43:03;62.43;;;24.40;;
64688;SDS011;62504;46.070;14.492;2023-12-20T02:45:29;49.00;;;21.53;;
64688;SDS011;62504;46.070;14.492;2023-12-20T02:47:55;51.60;;;22.23;;
64688;SDS011;62504;46.070;14.492;2023-12-20T02:50:20;47.67;;;20.23;;
64688;SDS011;62504;46.070;14.492;2023-12-20T02:52:46;43.33;;;21.03;;
64688;SDS011;62504;46.070;14.492;2023-12-20T02:55:12;60.97;;;21.83;;
64688;SDS011;62504;46.070;14.492;2023-12-20T02:57:38;51.27;;;22.03;;
64688;SDS011;62504;46.070;14.492;2023-12-20T03:00:07;49.83;;;21.07;;
64688;SDS011;62504;46.070;14.492;2023-12-20T03:02:34;50.10;;;20.83;;
64688;SDS011;62504;46.070;14.492;2023-12-20T03:05:00;46.83;;;20.40;;
64688;SDS011;62504;46.070;14.492;2023-12-20T03:07:26;48.90;;;20.23;;
64688;SDS011;62504;46.070;14.492;2023-12-20T03:09:51;43.40;;;20.10;;
64688;SDS011;62504;46.070;14.492;2023-12-20T03:12:17;46.67;;;20.10;;
64688;SDS011;62504;46.070;14.492;2023-12-20T03:14:43;51.23;;;20.43;;
64688;SDS011;62504;46.070;14.492;2023-12-20T03:17:09;42.33;;;19.27;;
64688;SDS011;62504;46.070;14.492;2023-12-20T03:19:35;43.30;;;20.00;;
64688;SDS011;62504;46.070;14.492;2023-12-20T03:22:01;48.70;;;20.70;;
64688;SDS011;62504;46.070;14.492;2023-12-20T03:24:26;44.17;;;20.03;;
64688;SDS011;62504;46.070;14.492;2023-12-20T03:26:52;45.83;;;20.17;;
64688;SDS011;62504;46.070;14.492;2023-12-20T03:29:18;45.47;;;19.67;;
64688;SDS011;62504;46.070;14.492;2023-12-20T03:31:44;46.87;;;20.07;;
64688;SDS011;62504;46.070;14.492;2023-12-20T03:34:10;47.03;;;20.00;;
64688;SDS011;62504;46.070;14.492;2023-12-20T03:36:36;47.93;;;19.90;;
64688;SDS011;62504;46.070;14.492;2023-12-20T03:39:02;42.87;;;19.13;;
64688;SDS011;62504;46.070;14.492;2023-12-20T03:41:28;42.50;;;18.17;;
64688;SDS011;62504;46.070;14.492;2023-12-20T03:43:54;39.13;;;18.83;;
64688;SDS011;62504;46.070;14.492;2023-12-20T03:46:19;45.70;;;20.33;;
64688;SDS011;62504;46.070;14.492;2023-12-20T03:48:45;46.90;;;20.60;;
64688;SDS011;62504;46.070;14.492;2023-12-20T03:51:10;50.67;;;20.43;;
64688;SDS011;62504;46.070;14.492;2023-12-20T03:53:36;47.43;;;20.30;;
64688;SDS011;62504;46.070;14.492;2023-12-20T03:56:02;45.73;;;19.47;;
64688;SDS011;62504;46.070;14.492;2023-12-20T03:58:28;49.80;;;20.30;;
64688;SDS011;62504;46.070;14.492;2023-12-20T04:00:54;50.27;;;20.40;;
64688;SDS011;62504;46.070;14.492;2023-12-20T04:03:20;53.13;;;21.50;;
64688;SDS011;62504;46.070;14.492;2023-12-20T04:05:45;45.73;;;20.07;;
64688;SDS011;62504;46.070;14.492;2023-12-20T04:08:11;49.13;;;20.23;;
64688;SDS011;62504;46.070;14.492;2023-12-20T04:10:37;47.07;;;20.33;;
64688;SDS011;62504;46.070;14.492;2023-12-20T04:13:03;54.10;;;19.87;;
64688;SDS011;62504;46.070;14.492;2023-12-20T04:15:29;42.73;;;20.17;;
64688;SDS011;62504;46.070;14.492;2023-12-20T04:17:55;44.10;;;18.87;;
64688;SDS011;62504;46.070;14.492;2023-12-20T04:20:20;46.80;;;18.30;;
64688;SDS011;62504;46.070;14.492;2023-12-20T04:22:46;40.87;;;17.70;;
64688;SDS011;62504;46.070;14.492;2023-12-20T04:25:11;45.73;;;19.50;;
64688;SDS011;62504;46.070;14.492;2023-12-20T04:27:37;44.50;;;19.53;;
64688;SDS011;62504;46.070;14.492;2023-12-20T04:30:03;49.67;;;18.93;;
64688;SDS011;62504;46.070;14.492;2023-12-20T04:32:29;47.10;;;19.93;;
64688;SDS011;62504;46.070;14.492;2023-12-20T04:34:55;44.57;;;18.83;;
64688;SDS011;62504;46.070;14.492;2023-12-20T04:37:20;48.00;;;19.30;;
64688;SDS011;62504;46.070;14.492;2023-12-20T04:39:46;44.33;;;19.47;;
64688;SDS011;62504;46.070;14.492;2023-12-20T04:42:12;42.13;;;18.43;;
64688;SDS011;62504;46.070;14.492;2023-12-20T04:44:37;40.67;;;18.63;;
64688;SDS011;62504;46.070;14.492;2023-12-20T04:47:03;47.00;;;19.13;;
64688;SDS011;62504;46.070;14.492;2023-12-20T04:49:29;47.97;;;18.53;;
64688;SDS011;62504;46.070;14.492;2023-12-20T04:51:54;45.33;;;19.07;;
64688;SDS011;62504;46.070;14.492;2023-12-20T04:54:20;45.23;;;19.07;;
64688;SDS011;62504;46.070;14.492;2023-12-20T04:56:46;55.53;;;19.23;;
64688;SDS011;62504;46.070;14.492;2023-12-20T04:59:12;45.03;;;19.23;;
64688;SDS011;62504;46.070;14.492;2023-12-20T05:01:38;48.60;;;19.90;;
64688;SDS011;62504;46.070;14.492;2023-12-20T05:04:04;46.13;;;18.83;;
64688;SDS011;62504;46.070;14.492;2023-12-20T05:06:30;46.70;;;19.50;;
64688;SDS011;62504;46.070;14.492;2023-12-20T05:08:55;49.03;;;19.80;;
64688;SDS011;62504;46.070;14.492;2023-12-20T05:11:21;48.03;;;19.57;;
64688;SDS011;62504;46.070;14.492;2023-12-20T05:13:47;48.70;;;21.20;;
64688;SDS011;62504;46.070;14.492;2023-12-20T05:16:13;42.43;;;19.00;;
64688;SDS011;62504;46.070;14.492;2023-12-20T05:18:43;45.90;;;19.50;;
64688;SDS011;62504;46.070;14.492;2023-12-20T05:21:09;51.87;;;20.60;;
64688;SDS011;62504;46.070;14.492;2023-12-20T05:23:35;48.10;;;19.93;;
64688;SDS011;62504;46.070;14.492;2023-12-20T05:26:01;49.63;;;19.93;;
64688;SDS011;62504;46.070;14.492;2023-12-20T05:28:26;49.70;;;20.27;;
64688;SDS011;62504;46.070;14.492;2023-12-20T05:30:52;46.83;;;19.33;;
64688;SDS011;62504;46.070;14.492;2023-12-20T05:33:19;47.67;;;20.43;;
64688;SDS011;62504;46.070;14.492;2023-12-20T05:35:44;49.27;;;20.30;;
64688;SDS011;62504;46.070;14.492;2023-12-20T05:38:10;51.53;;;20.73;;
64688;SDS011;62504;46.070;14.492;2023-12-20T05:40:36;51.27;;;20.17;;
64688;SDS011;62504;46.070;14.492;2023-12-20T05:43:02;51.23;;;21.03;;
64688;SDS011;62504;46.070;14.492;2023-12-20T05:45:27;49.63;;;20.33;;
64688;SDS011;62504;46.070;14.492;2023-12-20T05:47:53;43.97;;;18.77;;
64688;SDS011;62504;46.070;14.492;2023-12-20T05:50:19;39.27;;;17.50;;
64688;SDS011;62504;46.070;14.492;2023-12-20T05:52:44;39.93;;;17.93;;
64688;SDS011;62504;46.070;14.492;2023-12-20T05:55:10;44.50;;;18.50;;
64688;SDS011;62504;46.070;14.492;2023-12-20T05:57:35;41.70;;;17.57;;
64688;SDS011;62504;46.070;14.492;2023-12-20T06:00:01;45.80;;;18.80;;
64688;SDS011;62504;46.070;14.492;2023-12-20T06:02:28;46.90;;;19.57;;
64688;SDS011;62504;46.070;14.492;2023-12-20T06:04:54;43.13;;;18.50;;
64688;SDS011;62504;46.070;14.492;2023-12-20T06:07:19;48.00;;;19.27;;
64688;SDS011;62504;46.070;14.492;2023-12-20T06:09:45;43.20;;;18.77;;
64688;SDS011;62504;46.070;14.492;2023-12-20T06:12:11;47.03;;;20.50;;
64688;SDS011;62504;46.070;14.492;2023-12-20T06:14:36;42.27;;;19.37;;
64688;SDS011;62504;46.070;14.492;2023-12-20T06:17:02;45.37;;;19.07;;
64688;SDS011;62504;46.070;14.492;2023-12-20T06:19:28;46.20;;;18.97;;
64688;SDS011;62504;46.070;14.492;2023-12-20T06:21:53;48.90;;;19.93;;
64688;SDS011;62504;46.070;14.492;2023-12-20T06:24:19;49.33;;;19.57;;
64688;SDS011;62504;46.070;14.492;2023-12-20T06:26:46;49.07;;;19.80;;
64688;SDS011;62504;46.070;14.492;2023-12-20T06:29:12;47.10;;;18.73;;
64688;SDS011;62504;46.070;14.492;2023-12-20T06:31:37;53.30;;;19.13;;
64688;SDS011;62504;46.070;14.492;2023-12-20T06:34:03;56.13;;;20.60;;
64688;SDS011;62504;46.070;14.492;2023-12-20T06:36:29;48.37;;;19.80;;
64688;SDS011;62504;46.070;14.492;2023-12-20T06:38:54;56.30;;;21.07;;
64688;SDS011;62504;46.070;14.492;2023-12-20T06:41:20;48.07;;;20.07;;
64688;SDS011;62504;46.070;14.492;2023-12-20T06:43:46;48.70;;;19.60;;
64688;SDS011;62504;46.070;14.492;2023-12-20T06:46:12;51.33;;;19.83;;
64688;SDS011;62504;46.070;14.492;2023-12-20T06:48:38;49.00;;;19.20;;
64688;SDS011;62504;46.070;14.492;2023-12-20T06:51:05;49.07;;;19.47;;
64688;SDS011;62504;46.070;14.492;2023-12-20T06:53:30;44.73;;;19.30;;
64688;SDS011;62504;46.070;14.492;2023-12-20T06:55:56;49.17;;;19.27;;
64688;SDS011;62504;46.070;14.492;2023-12-20T06:58:22;45.03;;;18.27;;
64688;SDS011;62504;46.070;14.492;2023-12-20T07:00:48;44.77;;;16.97;;
64688;SDS011;62504;46.070;14.492;2023-12-20T07:03:14;43.43;;;17.90;;
64688;SDS011;62504;46.070;14.492;2023-12-20T07:05:39;51.80;;;18.60;;
64688;SDS011;62504;46.070;14.492;2023-12-20T07:08:06;44.97;;;18.77;;
64688;SDS011;62504;46.070;14.492;2023-12-20T07:10:31;44.57;;;19.40;;
64688;SDS011;62504;46.070;14.492;2023-12-20T07:12:57;43.73;;;18.83;;
64688;SDS011;62504;46.070;14.492;2023-12-20T07:15:23;43.30;;;19.13;;
64688;SDS011;62504;46.070;14.492;2023-12-20T07:17:49;48.27;;;19.80;;
64688;SDS011;62504;46.070;14.492;2023-12-20T07:20:14;45.93;;;20.57;;
64688;SDS011;62504;46.070;14.492;2023-12-20T07:22:40;51.37;;;21.63;;
64688;SDS011;62504;46.070;14.492;2023-12-20T07:25:06;46.70;;;20.77;;
64688;SDS011;62504;46.070;14.492;2023-12-20T07:27:32;47.77;;;21.67;;
64688;SDS011;62504;46.070;14.492;2023-12-20T07:29:58;51.50;;;21.13;;
64688;SDS011;62504;46.070;14.492;2023-12-20T07:32:24;48.87;;;21.37;;
64688;SDS011;62504;46.070;14.492;2023-12-20T07:34:49;52.63;;;21.53;;
64688;SDS011;62504;46.070;14.492;2023-12-20T07:37:15;52.60;;;21.13;;
64688;SDS011;62504;46.070;14.492;2023-12-20T07:39:41;50.77;;;21.27;;
64688;SDS011;62504;46.070;14.492;2023-12-20T07:42:09;50.07;;;21.40;;
64688;SDS011;62504;46.070;14.492;2023-12-20T07:44:35;52.50;;;20.80;;
64688;SDS011;62504;46.070;14.492;2023-12-20T07:47:03;58.93;;;21.60;;
64688;SDS011;62504;46.070;14.492;2023-12-20T07:49:32;49.50;;;20.03;;
64688;SDS011;62504;46.070;14.492;2023-12-20T07:51:58;47.03;;;19.93;;
64688;SDS011;62504;46.070;14.492;2023-12-20T07:54:24;47.87;;;19.80;;
64688;SDS011;62504;46.070;14.492;2023-12-20T07:56:49;45.70;;;19.17;;
64688;SDS011;62504;46.070;14.492;2023-12-20T07:59:15;43.03;;;19.17;;
64688;SDS011;62504;46.070;14.492;2023-12-20T08:01:41;50.13;;;19.33;;
64688;SDS011;62504;46.070;14.492;2023-12-20T08:04:07;45.50;;;19.40;;
64688;SDS011;62504;46.070;14.492;2023-12-20T08:06:33;48.50;;;19.07;;
64688;SDS011;62504;46.070;14.492;2023-12-20T08:08:59;43.70;;;18.63;;
64688;SDS011;62504;46.070;14.492;2023-12-20T08:11:24;52.23;;;20.03;;
64688;SDS011;62504;46.070;14.492;2023-12-20T08:13:50;43.80;;;19.23;;
64688;SDS011;62504;46.070;14.492;2023-12-20T08:16:16;54.60;;;19.63;;
64688;SDS011;62504;46.070;14.492;2023-12-20T08:18:42;45.30;;;19.43;;
64688;SDS011;62504;46.070;14.492;2023-12-20T08:21:08;51.33;;;19.40;;
64688;SDS011;62504;46.070;14.492;2023-12-20T08:23:34;44.77;;;19.47;;
64688;SDS011;62504;46.070;14.492;2023-12-20T08:26:07;46.07;;;19.20;;
64688;SDS011;62504;46.070;14.492;2023-12-20T08:28:33;51.57;;;20.87;;
64688;SDS011;62504;46.070;14.492;2023-12-20T08:31:00;48.83;;;19.57;;
64688;SDS011;62504;46.070;14.492;2023-12-20T08:33:26;52.53;;;20.40;;
64688;SDS011;62504;46.070;14.492;2023-12-20T08:35:51;48.10;;;19.60;;
64688;SDS011;62504;46.070;14.492;2023-12-20T08:38:17;52.73;;;20.17;;
64688;SDS011;62504;46.070;14.492;2023-12-20T08:40:43;44.57;;;19.20;;
64688;SDS011;62504;46.070;14.492;2023-12-20T08:43:09;47.63;;;20.23;;
64688;SDS011;62504;46.070;14.492;2023-12-20T08:45:35;49.90;;;21.03;;
64688;SDS011;62504;46.070;14.492;2023-12-20T08:48:01;47.03;;;20.87;;
64688;SDS011;62504;46.070;14.492;2023-12-20T08:50:28;49.63;;;19.77;;
64688;SDS011;62504;46.070;14.492;2023-12-20T08:52:54;51.80;;;20.83;;
64688;SDS011;62504;46.070;14.492;2023-12-20T08:55:19;54.77;;;20.53;;
64688;SDS011;62504;46.070;14.492;2023-12-20T08:57:45;52.33;;;20.47;;
64688;SDS011;62504;46.070;14.492;2023-12-20T09:00:11;46.90;;;20.30;;
64688;SDS011;62504;46.070;14.492;2023-12-20T09:02:37;48.77;;;20.57;;
64688;SDS011;62504;46.070;14.492;2023-12-20T09:05:04;50.07;;;20.57;;
64688;SDS011;62504;46.070;14.492;2023-12-20T09:07:30;49.83;;;21.30;;
64688;SDS011;62504;46.070;14.492;2023-12-20T09:09:56;47.13;;;20.57;;
64688;SDS011;62504;46.070;14.492;2023-12-20T09:12:23;47.23;;;20.83;;
64688;SDS011;62504;46.070;14.492;2023-12-20T09:14:49;49.37;;;20.10;;
64688;SDS011;62504;46.070;14.492;2023-12-20T09:17:16;52.93;;;21.87;;
64688;SDS011;62504;46.070;14.492;2023-12-20T09:19:42;51.30;;;23.67;;
64688;SDS011;62504;46.070;14.492;2023-12-20T09:22:11;57.87;;;24.13;;
64688;SDS011;62504;46.070;14.492;2023-12-20T09:24:37;52.23;;;22.80;;
64688;SDS011;62504;46.070;14.492;2023-12-20T09:27:04;57.33;;;23.10;;
64688;SDS011;62504;46.070;14.492;2023-12-20T09:29:32;55.10;;;23.57;;
64688;SDS011;62504;46.070;14.492;2023-12-20T09:31:58;56.07;;;24.80;;
64688;SDS011;62504;46.070;14.492;2023-12-20T09:34:23;55.07;;;24.43;;
64688;SDS011;62504;46.070;14.492;2023-12-20T09:36:50;56.60;;;24.30;;
64688;SDS011;62504;46.070;14.492;2023-12-20T09:39:17;57.03;;;23.83;;
64688;SDS011;62504;46.070;14.492;2023-12-20T09:45:11;55.43;;;23.30;;
64688;SDS011;62504;46.070;14.492;2023-12-20T09:47:43;57.93;;;23.53;;
64688;SDS011;62504;46.070;14.492;2023-12-20T09:50:08;51.73;;;22.23;;
64688;SDS011;62504;46.070;14.492;2023-12-20T09:52:35;51.40;;;22.50;;
64688;SDS011;62504;46.070;14.492;2023-12-20T09:55:01;50.57;;;22.43;;
64688;SDS011;62504;46.070;14.492;2023-12-20T09:57:31;49.27;;;21.83;;
64688;SDS011;62504;46.070;14.492;2023-12-20T09:59:57;46.63;;;21.37;;
64688;SDS011;62504;46.070;14.492;2023-12-20T10:02:24;45.30;;;21.23;;
64688;SDS011;62504;46.070;14.492;2023-12-20T10:04:54;45.90;;;21.73;;
64688;SDS011;62504;46.070;14.492;2023-12-20T10:07:20;52.90;;;22.97;;
64688;SDS011;62504;46.070;14.492;2023-12-20T10:09:47;53.27;;;22.97;;
64688;SDS011;62504;46.070;14.492;2023-12-20T10:12:13;52.83;;;22.53;;
64688;SDS011;62504;46.070;14.492;2023-12-20T10:14:39;47.13;;;22.20;;
64688;SDS011;62504;46.070;14.492;2023-12-20T10:17:05;49.97;;;22.97;;
64688;SDS011;62504;46.070;14.492;2023-12-20T10:19:34;46.60;;;22.23;;
64688;SDS011;62504;46.070;14.492;2023-12-20T10:22:00;47.27;;;22.60;;
64688;SDS011;62504;46.070;14.492;2023-12-20T10:24:29;43.33;;;21.57;;
64688;SDS011;62504;46.070;14.492;2023-12-20T10:27:04;45.97;;;22.57;;
64688;SDS011;62504;46.070;14.492;2023-12-20T10:29:37;41.87;;;21.40;;
64688;SDS011;62504;46.070;14.492;2023-12-20T10:34:51;35.70;;;17.97;;
64688;SDS011;62504;46.070;14.492;2023-12-20T10:37:18;30.13;;;15.73;;
64688;SDS011;62504;46.070;14.492;2023-12-20T10:39:45;34.90;;;17.63;;
64688;SDS011;62504;46.070;14.492;2023-12-20T10:42:16;34.47;;;17.57;;
64688;SDS011;62504;46.070;14.492;2023-12-20T10:44:46;38.97;;;17.93;;
64688;SDS011;62504;46.070;14.492;2023-12-20T10:47:12;40.77;;;18.70;;
64688;SDS011;62504;46.070;14.492;2023-12-20T10:49:38;32.83;;;17.73;;
64688;SDS011;62504;46.070;14.492;2023-12-20T10:52:05;36.53;;;17.57;;
64688;SDS011;62504;46.070;14.492;2023-12-20T10:54:33;38.87;;;18.43;;
64688;SDS011;62504;46.070;14.492;2023-12-20T10:56:59;34.30;;;17.57;;
64688;SDS011;62504;46.070;14.492;2023-12-20T10:59:29;38.33;;;18.20;;
64688;SDS011;62504;46.070;14.492;2023-12-20T11:01:57;40.40;;;17.83;;
64688;SDS011;62504;46.070;14.492;2023-12-20T11:13:31;33.70;;;16.77;;
64688;SDS011;62504;46.070;14.492;2023-12-20T11:16:13;35.53;;;17.17;;
64688;SDS011;62504;46.070;14.492;2023-12-20T11:18:40;31.90;;;16.17;;
64688;SDS011;62504;46.070;14.492;2023-12-20T11:21:05;34.10;;;16.03;;
64688;SDS011;62504;46.070;14.492;2023-12-20T11:23:31;35.80;;;16.40;;
64688;SDS011;62504;46.070;14.492;2023-12-20T11:26:01;33.47;;;16.20;;
64688;SDS011;62504;46.070;14.492;2023-12-20T11:28:28;29.13;;;15.57;;
64688;SDS011;62504;46.070;14.492;2023-12-20T11:30:57;36.63;;;16.20;;
64688;SDS011;62504;46.070;14.492;2023-12-20T11:33:29;35.37;;;17.17;;
64688;SDS011;62504;46.070;14.492;2023-12-20T11:35:56;34.97;;;17.43;;
64688;SDS011;62504;46.070;14.492;2023-12-20T11:38:24;34.23;;;17.80;;
64688;SDS011;62504;46.070;14.492;2023-12-20T11:40:50;36.50;;;17.93;;
64688;SDS011;62504;46.070;14.492;2023-12-20T11:43:32;40.73;;;18.37;;
64688;SDS011;62504;46.070;14.492;2023-12-20T11:46:06;36.67;;;18.10;;
64688;SDS011;62504;46.070;14.492;2023-12-20T11:48:34;38.90;;;17.80;;
64688;SDS011;62504;46.070;14.492;2023-12-20T11:51:02;34.27;;;16.93;;
64688;SDS011;62504;46.070;14.492;2023-12-20T11:53:34;37.33;;;17.60;;
64688;SDS011;62504;46.070;14.492;2023-12-20T11:56:00;37.40;;;16.73;;
64688;SDS011;62504;46.070;14.492;2023-12-20T11:58:28;37.73;;;18.60;;
64688;SDS011;62504;46.070;14.492;2023-12-20T12:00:53;34.17;;;18.53;;
64688;SDS011;62504;46.070;14.492;2023-12-20T12:03:20;38.90;;;18.87;;
64688;SDS011;62504;46.070;14.492;2023-12-20T12:05:47;42.00;;;20.17;;
64688;SDS011;62504;46.070;14.492;2023-12-20T12:08:13;39.60;;;19.17;;
64688;SDS011;62504;46.070;14.492;2023-12-20T12:10:39;39.63;;;20.10;;
64688;SDS011;62504;46.070;14.492;2023-12-20T12:13:04;44.27;;;20.87;;
64688;SDS011;62504;46.070;14.492;2023-12-20T12:15:30;43.33;;;20.80;;
64688;SDS011;62504;46.070;14.492;2023-12-20T12:17:56;41.53;;;21.10;;
64688;SDS011;62504;46.070;14.492;2023-12-20T12:20:24;45.10;;;21.77;;
64688;SDS011;62504;46.070;14.492;2023-12-20T12:23:02;51.10;;;23.30;;
64688;SDS011;62504;46.070;14.492;2023-12-20T12:25:30;44.70;;;21.97;;
64688;SDS011;62504;46.070;14.492;2023-12-20T12:27:58;44.93;;;22.37;;
64688;SDS011;62504;46.070;14.492;2023-12-20T12:30:24;47.93;;;22.97;;
64688;SDS011;62504;46.070;14.492;2023-12-20T12:32:51;53.80;;;24.27;;
64688;SDS011;62504;46.070;14.492;2023-12-20T12:35:17;51.10;;;24.03;;
64688;SDS011;62504;46.070;14.492;2023-12-20T12:37:44;52.83;;;24.17;;
64688;SDS011;62504;46.070;14.492;2023-12-20T12:40:10;53.57;;;24.43;;
64688;SDS011;62504;46.070;14.492;2023-12-20T12:42:40;51.77;;;24.47;;
64688;SDS011;62504;46.070;14.492;2023-12-20T12:45:07;54.73;;;23.97;;
64688;SDS011;62504;46.070;14.492;2023-12-20T12:47:33;48.10;;;23.63;;
64688;SDS011;62504;46.070;14.492;2023-12-20T12:49:59;51.53;;;23.83;;
64688;SDS011;62504;46.070;14.492;2023-12-20T12:52:25;55.20;;;24.27;;
64688;SDS011;62504;46.070;14.492;2023-12-20T12:54:51;50.67;;;24.30;;
64688;SDS011;62504;46.070;14.492;2023-12-20T12:57:17;59.30;;;25.37;;
64688;SDS011;62504;46.070;14.492;2023-12-20T12:59:44;51.40;;;24.30;;
64688;SDS011;62504;46.070;14.492;2023-12-20T13:02:13;46.87;;;23.13;;
64688;SDS011;62504;46.070;14.492;2023-12-20T13:04:39;53.33;;;24.17;;
64688;SDS011;62504;46.070;14.492;2023-12-20T13:07:06;46.70;;;23.13;;
64688;SDS011;62504;46.070;14.492;2023-12-20T13:09:33;48.80;;;22.70;;
64688;SDS011;62504;46.070;14.492;2023-12-20T13:11:58;50.67;;;25.20;;
64688;SDS011;62504;46.070;14.492;2023-12-20T13:14:24;50.07;;;26.43;;
64688;SDS011;62504;46.070;14.492;2023-12-20T13:16:50;48.20;;;25.63;;
64688;SDS011;62504;46.070;14.492;2023-12-20T13:19:16;47.03;;;24.70;;
64688;SDS011;62504;46.070;14.492;2023-12-20T13:21:41;43.33;;;22.10;;
64688;SDS011;62504;46.070;14.492;2023-12-20T13:24:07;37.90;;;21.07;;
64688;SDS011;62504;46.070;14.492;2023-12-20T13:26:33;42.57;;;20.93;;
64688;SDS011;62504;46.070;14.492;2023-12-20T13:28:58;38.47;;;20.27;;
64688;SDS011;62504;46.070;14.492;2023-12-20T13:31:24;42.40;;;21.63;;
64688;SDS011;62504;46.070;14.492;2023-12-20T13:33:49;40.20;;;19.70;;
64688;SDS011;62504;46.070;14.492;2023-12-20T13:36:17;38.83;;;21.67;;
64688;SDS011;62504;46.070;14.492;2023-12-20T13:38:44;40.07;;;20.27;;
64688;SDS011;62504;46.070;14.492;2023-12-20T13:41:10;42.23;;;21.23;;
64688;SDS011;62504;46.070;14.492;2023-12-20T13:43:36;40.13;;;20.30;;
64688;SDS011;62504;46.070;14.492;2023-12-20T13:46:01;41.03;;;21.43;;
64688;SDS011;62504;46.070;14.492;2023-12-20T13:48:27;39.97;;;20.73;;
64688;SDS011;62504;46.070;14.492;2023-12-20T13:50:52;43.30;;;21.77;;
64688;SDS011;62504;46.070;14.492;2023-12-20T13:53:19;41.77;;;21.37;;
64688;SDS011;62504;46.070;14.492;2023-12-20T13:55:45;38.83;;;20.97;;
64688;SDS011;62504;46.070;14.492;2023-12-20T13:58:11;44.73;;;22.63;;
64688;SDS011;62504;46.070;14.492;2023-12-20T14:00:37;41.00;;;20.97;;
64688;SDS011;62504;46.070;14.492;2023-12-20T14:03:03;41.67;;;20.37;;
64688;SDS011;62504;46.070;14.492;2023-12-20T14:05:29;40.87;;;20.70;;
64688;SDS011;62504;46.070;14.492;2023-12-20T14:07:55;39.67;;;21.07;;
64688;SDS011;62504;46.070;14.492;2023-12-20T14:10:23;38.10;;;20.20;;
64688;SDS011;62504;46.070;14.492;2023-12-20T14:12:51;41.17;;;19.50;;
64688;SDS011;62504;46.070;14.492;2023-12-20T14:15:17;34.33;;;18.23;;
64688;SDS011;62504;46.070;14.492;2023-12-20T14:17:43;35.30;;;19.30;;